Terminal Aerodrome Forecast
Issued by NWS

Home | Current Version | Previous Version | Text Only | Print | Product List | Glossary On
Versions: 1 2 3 4 5 6 7 8 9 10 11 12 13 14 15
000
FTUS45 KREV 240521
TAFMMH
TAF
KMMH 240521Z 2406/2506 VRB04KT P6SM BKN020 BKN030
     FM241000 VRB04KT P6SM SCT025 BKN050
     FM242000 32012G18KT P6SM VCSH SCT050 BKN090
     FM250300 30011KT P6SM SCT040 BKN070=

USA.gov is the U.S. government's official web portal to all federal, state and local government web resources and services.